Time;durP1;ratioP1;P1;durP2;ratioP2;P2;SDS_P1;SDS_P2;PMS_P1;PMS_P2;Temp;Humidity;BMP_temperature;BMP_pressure;BME280_temperature;BME280_humidity;BME280_pressure;Samples;Min_cycle;Max_cycle;Signal;HPM_P1;HPM_P2
2021/12/25 00:01:49;;;;;;;2.80;2.70;;;16.20;65.00;;;;;;5066548;28;44060;-69
2021/12/25 00:04:21;;;;;;;2.70;2.60;;;16.20;65.20;;;;;;5065698;28;45275;-70
2021/12/25 00:06:49;;;;;;;2.80;2.70;;;16.10;65.30;;;;;;5067265;28;43964;-68
2021/12/25 00:09:17;;;;;;;2.87;2.77;;;16.10;65.50;;;;;;5067146;28;43858;-68
2021/12/25 00:11:45;;;;;;;3.10;3.00;;;16.10;65.60;;;;;;5066722;28;44035;-69
2021/12/25 00:14:13;;;;;;;3.10;3.00;;;16.00;65.70;;;;;;5064996;28;45006;-69
2021/12/25 00:16:44;;;;;;;3.00;2.90;;;16.00;65.80;;;;;;5066999;28;43967;-69
2021/12/25 00:19:13;;;;;;;3.20;3.10;;;16.00;65.80;;;;;;5065639;28;43944;-69
2021/12/25 00:21:41;;;;;;;2.63;2.63;;;16.00;65.90;;;;;;5065916;28;43977;-70
2021/12/25 00:24:10;;;;;;;2.73;2.63;;;16.00;65.90;;;;;;5066221;28;44341;-69
2021/12/25 00:29:52;;;;;;;2.97;2.87;;;16.00;66.20;;;;;;5065846;28;43960;-68
2021/12/25 00:35:07;;;;;;;3.07;2.97;;;16.20;65.60;;;;;;5066373;28;43905;-69
2021/12/25 00:37:35;;;;;;;3.40;3.30;;;16.40;65.00;;;;;;5066558;28;44022;-69
2021/12/25 00:40:04;;;;;;;3.03;2.93;;;16.50;64.60;;;;;;5065268;28;43620;-69
2021/12/25 00:42:32;;;;;;;3.17;3.07;;;16.60;64.40;;;;;;5066197;28;43958;-69
2021/12/25 00:45:00;;;;;;;3.40;3.30;;;16.60;64.30;;;;;;5064914;28;45003;-69
2021/12/25 00:47:28;;;;;;;3.20;3.00;;;16.50;64.30;;;;;;5066441;28;44047;-69
2021/12/25 00:49:56;;;;;;;3.30;3.20;;;16.50;64.60;;;;;;5065129;28;43939;-68
2021/12/25 00:52:25;;;;;;;3.17;3.07;;;16.40;64.60;;;;;;5066278;28;44127;-69
2021/12/25 00:54:53;;;;;;;3.60;3.50;;;16.30;64.80;;;;;;5066212;28;43933;-70
2021/12/25 00:57:21;;;;;;;3.20;3.10;;;16.30;65.10;;;;;;5066402;28;43841;-69
2021/12/25 00:59:49;;;;;;;3.30;3.20;;;16.20;65.20;;;;;;5065189;28;44007;-69
2021/12/25 01:02:18;;;;;;;3.50;3.40;;;16.20;65.40;;;;;;5064428;28;44085;-69
2021/12/25 01:04:46;;;;;;;3.20;3.10;;;16.10;65.40;;;;;;5065940;28;43971;-69
2021/12/25 01:07:14;;;;;;;3.53;3.43;;;16.10;65.50;;;;;;5064692;28;43917;-69
2021/12/25 01:09:48;;;;;;;3.50;3.40;;;16.10;65.80;;;;;;5064950;28;43498;-69
2021/12/25 01:12:17;;;;;;;3.33;3.23;;;16.10;65.80;;;;;;5064400;28;43992;-69
2021/12/25 01:14:49;;;;;;;3.60;3.50;;;16.20;65.50;;;;;;5065887;28;43339;-68
2021/12/25 01:18:01;;;;;;;3.43;3.33;;;16.30;65.20;;;;;;5064684;28;43956;-69
2021/12/25 01:20:57;;;;;;;3.47;3.37;;;16.30;65.00;;;;;;5063173;28;44333;-69
2021/12/25 01:26:58;;;;;;;3.63;3.43;;;16.30;65.30;;;;;;5066641;28;44759;-68
2021/12/25 01:29:36;;;;;;;3.50;3.40;;;16.20;65.30;;;;;;5067965;28;43929;-69
2021/12/25 01:32:37;;;;;;;3.33;3.23;;;16.10;65.40;;;;;;5068338;28;44024;-69
2021/12/25 01:35:44;;;;;;;3.63;3.53;;;16.10;65.60;;;;;;5056886;28;44005;-69
2021/12/25 01:38:53;;;;;;;3.47;3.37;;;16.10;65.80;;;;;;5068316;28;44047;-69
2021/12/25 01:42:01;;;;;;;3.47;3.27;;;16.00;65.80;;;;;;5066310;28;43932;-70
2021/12/25 01:48:02;;;;;;;3.50;3.20;;;16.00;66.00;;;;;;5063160;28;43920;-70
2021/12/25 01:50:33;;;;;;;3.30;3.20;;;16.00;66.10;;;;;;5067388;28;44443;-69
2021/12/25 01:53:01;;;;;;;3.50;3.40;;;16.00;66.10;;;;;;5068910;28;43273;-69
2021/12/25 01:55:29;;;;;;;3.77;3.57;;;16.10;65.90;;;;;;5067706;28;43430;-69
2021/12/25 01:58:00;;;;;;;3.53;3.33;;;16.30;65.40;;;;;;5067255;28;45562;-69
2021/12/25 02:00:29;;;;;;;3.70;3.60;;;16.40;64.90;;;;;;5067125;28;43288;-70
2021/12/25 02:02:57;;;;;;;3.60;3.50;;;16.50;64.60;;;;;;5068964;28;43387;-69
2021/12/25 02:05:25;;;;;;;3.37;3.27;;;16.60;64.40;;;;;;5067785;28;44417;-69
2021/12/25 02:08:13;;;;;;;3.83;3.70;;;16.60;64.30;;;;;;5067017;28;45899;-70
2021/12/25 02:10:41;;;;;;;3.80;3.60;;;16.50;64.50;;;;;;5067299;28;44046;-69
2021/12/25 02:13:12;;;;;;;3.60;3.50;;;16.40;64.70;;;;;;5067280;28;43398;-69
2021/12/25 02:15:43;;;;;;;3.53;3.43;;;16.40;64.90;;;;;;5067779;28;44093;-69
2021/12/25 02:18:17;;;;;;;3.50;3.40;;;16.30;65.10;;;;;;5066615;28;44007;-70
2021/12/25 02:21:20;;;;;;;3.47;3.37;;;16.30;65.30;;;;;;5062208;28;43930;-68
2021/12/25 02:23:49;;;;;;;3.50;3.40;;;16.20;65.40;;;;;;5067199;28;43962;-69
2021/12/25 02:26:17;;;;;;;3.60;3.50;;;16.20;65.60;;;;;;5067300;28;43944;-69
2021/12/25 02:28:45;;;;;;;3.57;3.47;;;16.10;65.60;;;;;;5066676;28;45765;-70
2021/12/25 02:31:14;;;;;;;3.37;3.27;;;16.10;65.70;;;;;;5066816;28;44739;-69
2021/12/25 02:33:43;;;;;;;3.50;3.40;;;16.10;65.90;;;;;;5066884;28;43956;-69
2021/12/25 02:36:12;;;;;;;3.60;3.50;;;16.20;65.80;;;;;;5066903;28;44111;-69
2021/12/25 02:38:43;;;;;;;3.40;3.30;;;16.30;65.30;;;;;;5066611;28;45069;-69
2021/12/25 02:41:11;;;;;;;3.37;3.27;;;16.40;65.10;;;;;;5067990;28;43846;-69
2021/12/25 02:43:43;;;;;;;3.60;3.50;;;16.30;64.90;;;;;;5066825;28;43462;-70
2021/12/25 02:46:12;;;;;;;3.43;3.33;;;16.30;65.10;;;;;;5067081;28;44107;-69
2021/12/25 02:48:41;;;;;;;3.63;3.53;;;16.30;65.20;;;;;;5067877;28;44867;-69
2021/12/25 02:51:11;;;;;;;3.80;3.60;;;16.20;65.30;;;;;;5066510;28;43949;-69
2021/12/25 02:53:40;;;;;;;3.23;3.13;;;16.20;65.50;;;;;;5066802;28;44019;-69
2021/12/25 02:56:09;;;;;;;4.00;3.90;;;16.10;65.50;;;;;;5066810;28;43427;-69
2021/12/25 02:58:40;;;;;;;3.40;3.30;;;16.10;65.70;;;;;;5066351;28;44034;-69
2021/12/25 03:01:09;;;;;;;3.73;3.63;;;16.10;65.80;;;;;;5066127;28;44953;-69
2021/12/25 03:03:38;;;;;;;3.20;3.10;;;16.10;65.80;;;;;;5067840;28;44027;-69
2021/12/25 03:06:06;;;;;;;3.47;3.37;;;16.10;65.90;;;;;;5068184;28;43918;-69
2021/12/25 03:08:34;;;;;;;3.20;3.10;;;16.00;65.90;;;;;;5067767;28;43941;-69
2021/12/25 03:11:05;;;;;;;3.50;3.40;;;16.00;66.00;;;;;;5067567;28;44073;-69
2021/12/25 03:13:42;;;;;;;3.70;3.60;;;16.00;66.10;;;;;;5067862;28;44015;-69
2021/12/25 03:16:10;;;;;;;3.90;3.80;;;16.10;66.30;;;;;;5066521;28;43995;-68
2021/12/25 03:18:45;;;;;;;3.90;3.60;;;16.20;66.00;;;;;;5065936;28;46211;-69
2021/12/25 03:21:13;;;;;;;3.43;3.33;;;16.30;65.50;;;;;;5065504;28;44407;-69
2021/12/25 03:23:42;;;;;;;3.67;3.37;;;16.50;65.10;;;;;;5066194;28;43896;-69
2021/12/25 03:26:10;;;;;;;3.63;3.53;;;16.60;64.80;;;;;;5066376;28;43993;-69
2021/12/25 03:28:42;;;;;;;3.33;3.23;;;16.60;64.50;;;;;;5065895;28;45733;-69
2021/12/25 03:31:15;;;;;;;3.57;3.37;;;16.60;64.50;;;;;;5065865;28;45920;-69
2021/12/25 03:33:44;;;;;;;3.30;3.20;;;16.50;64.80;;;;;;5067649;28;43908;-69
2021/12/25 03:36:12;;;;;;;3.23;3.13;;;16.40;64.90;;;;;;5066233;28;43959;-69
2021/12/25 03:38:40;;;;;;;3.40;3.30;;;16.30;65.10;;;;;;5065712;28;46129;-69
2021/12/25 03:41:08;;;;;;;3.60;3.50;;;16.20;65.30;;;;;;5065609;28;45234;-69
2021/12/25 03:43:39;;;;;;;3.37;3.27;;;16.20;65.50;;;;;;5065729;28;43893;-70
2021/12/25 03:46:09;;;;;;;3.77;3.57;;;16.20;65.70;;;;;;5066299;28;44297;-69
2021/12/25 03:59:52;;;;;;;3.00;2.90;;;16.20;66.00;;;;;;5065359;28;45752;-69
2021/12/25 04:02:27;;;;;;;3.30;3.20;;;16.30;65.50;;;;;;5065361;28;44818;-69
2021/12/25 04:04:56;;;;;;;3.37;3.27;;;16.30;65.10;;;;;;5065594;28;44019;-70
2021/12/25 04:07:49;;;;;;;3.37;3.17;;;16.30;65.00;;;;;;5065785;28;44146;-69
2021/12/25 04:10:19;;;;;;;3.43;3.33;;;16.30;65.10;;;;;;5065290;28;45749;-68
2021/12/25 04:12:47;;;;;;;3.30;3.20;;;16.30;65.30;;;;;;5066616;28;43884;-68
2021/12/25 04:15:15;;;;;;;2.90;2.90;;;16.20;65.40;;;;;;5065451;28;43840;-69
2021/12/25 04:17:44;;;;;;;3.30;3.20;;;16.20;65.50;;;;;;5065855;28;43773;-69
2021/12/25 04:20:12;;;;;;;3.50;3.30;;;16.10;65.50;;;;;;5065045;28;46249;-70
2021/12/25 04:22:45;;;;;;;3.07;2.97;;;16.10;65.70;;;;;;5066251;28;43982;-68
2021/12/25 04:25:19;;;;;;;3.30;3.20;;;16.10;65.80;;;;;;5065149;28;43965;-69
2021/12/25 04:27:47;;;;;;;2.70;2.70;;;16.10;65.80;;;;;;5065726;28;44011;-68
2021/12/25 04:30:28;;;;;;;3.30;3.20;;;16.10;66.00;;;;;;5065039;28;43882;-69
2021/12/25 04:50:02;;;;;;;4.87;4.40;;;16.60;64.60;;;;;;5065342;28;43452;-70
2021/12/25 05:04:08;;;;;;;7.93;5.20;;;16.40;64.90;;;;;;5067141;28;43669;-69
2021/12/25 05:06:53;;;;;;;7.00;5.00;;;16.30;65.10;;;;;;5068563;28;44902;-70
2021/12/25 05:09:21;;;;;;;10.10;5.80;;;16.30;66.10;;;;;;5068424;28;44097;-69
2021/12/25 05:11:49;;;;;;;9.27;5.50;;;16.20;65.40;;;;;;5068469;28;44098;-69
2021/12/25 05:14:17;;;;;;;8.77;5.30;;;16.20;65.60;;;;;;5068002;28;44040;-69
2021/12/25 05:16:46;;;;;;;8.90;5.33;;;16.20;65.70;;;;;;5067984;28;45021;-70
2021/12/25 05:19:14;;;;;;;9.60;5.50;;;16.20;65.90;;;;;;5068140;28;43978;-69
2021/12/25 05:21:42;;;;;;;7.73;5.10;;;16.20;65.90;;;;;;5067953;28;43538;-69
2021/12/25 05:24:12;;;;;;;9.17;5.83;;;16.30;65.50;;;;;;5067854;28;44085;-69
2021/12/25 05:26:45;;;;;;;11.10;6.27;;;16.40;65.20;;;;;;5067996;28;45030;-69
2021/12/25 05:29:22;;;;;;;11.83;5.97;;;16.40;65.00;;;;;;5068058;28;43381;-69
2021/12/25 05:31:50;;;;;;;8.40;5.47;;;16.40;65.10;;;;;;5068372;28;43973;-69
2021/12/25 05:34:18;;;;;;;9.20;5.90;;;16.30;65.10;;;;;;5062609;28;44712;-69
2021/12/25 05:36:54;;;;;;;11.00;6.30;;;16.30;65.40;;;;;;5062752;28;44912;-69
2021/12/25 05:39:56;;;;;;;9.87;5.93;;;16.30;65.50;;;;;;5069058;28;43993;-69
2021/12/25 05:42:29;;;;;;;10.47;6.23;;;16.20;65.60;;;;;;5068188;28;43960;-69
2021/12/25 05:44:57;;;;;;;9.73;5.77;;;16.20;65.80;;;;;;5067603;28;44040;-70
2021/12/25 05:47:25;;;;;;;15.10;6.33;;;16.10;65.80;;;;;;5068854;28;44091;-69
2021/12/25 05:50:11;;;;;;;11.67;6.47;;;16.10;65.90;;;;;;5061686;28;43982;-69
2021/12/25 05:52:59;;;;;;;10.77;6.10;;;16.10;66.00;;;;;;5064678;28;44116;-69
2021/12/25 05:55:47;;;;;;;10.23;6.30;;;16.10;66.00;;;;;;5066046;28;43967;-69
2021/12/25 05:58:39;;;;;;;10.13;5.93;;;16.10;66.10;;;;;;5067371;28;45580;-69
2021/12/25 06:01:26;;;;;;;15.30;6.70;;;16.10;66.30;;;;;;5067503;28;43473;-69
2021/12/25 06:03:55;;;;;;;13.07;6.40;;;16.30;66.10;;;;;;5061910;28;44046;-69
2021/12/25 06:06:24;;;;;;;10.13;6.20;;;16.40;65.50;;;;;;5061221;28;47173;-68
2021/12/25 06:08:52;;;;;;;12.70;6.50;;;16.50;65.00;;;;;;5068711;28;43367;-69
2021/12/25 06:11:23;;;;;;;13.70;6.80;;;16.70;64.70;;;;;;5068238;28;44075;-69
2021/12/25 06:13:58;;;;;;;10.77;5.90;;;16.70;64.40;;;;;;5067724;28;43995;-69
2021/12/25 06:16:38;;;;;;;10.63;6.10;;;16.70;64.40;;;;;;5067177;28;45711;-69
2021/12/25 06:19:21;;;;;;;9.80;6.17;;;16.60;64.60;;;;;;5067220;28;45742;-69
2021/12/25 06:22:09;;;;;;;10.67;6.33;;;16.50;64.80;;;;;;5067584;28;43940;-70
2021/12/25 06:24:57;;;;;;;8.67;5.77;;;16.40;65.10;;;;;;5068530;28;43989;-69
2021/12/25 06:27:45;;;;;;;11.03;6.20;;;16.30;65.40;;;;;;5065428;28;44066;-70
2021/12/25 06:30:29;;;;;;;10.97;6.37;;;16.20;65.50;;;;;;5064411;28;43417;-69
2021/12/25 06:33:00;;;;;;;11.00;6.27;;;16.20;65.70;;;;;;5066879;28;44115;-69
2021/12/25 06:36:02;;;;;;;10.40;6.27;;;16.20;65.90;;;;;;5068464;28;43524;-69
2021/12/25 06:38:42;;;;;;;11.23;6.20;;;16.10;65.90;;;;;;5065076;28;44001;-69
2021/12/25 06:41:19;;;;;;;8.50;5.90;;;16.10;66.10;;;;;;5068383;28;43963;-69
2021/12/25 06:43:50;;;;;;;9.90;5.70;;;16.20;65.90;;;;;;5066692;28;43974;-69
2021/12/25 06:46:34;;;;;;;9.57;6.07;;;16.30;65.50;;;;;;5066984;28;43628;-69
2021/12/25 06:49:02;;;;;;;8.60;6.03;;;16.40;65.30;;;;;;5066538;28;45907;-69
2021/12/25 06:51:59;;;;;;;8.10;5.60;;;16.40;65.20;;;;;;5067651;28;43691;-69
2021/12/25 06:55:06;;;;;;;7.80;5.63;;;16.30;65.30;;;;;;5062357;28;44153;-69
2021/12/25 06:58:04;;;;;;;8.53;5.93;;;16.30;65.40;;;;;;5066680;28;43936;-69
2021/12/25 07:00:33;;;;;;;8.90;5.60;;;16.30;65.60;;;;;;5067657;28;43783;-69
2021/12/25 07:03:05;;;;;;;8.63;5.70;;;16.20;65.60;;;;;;5066484;28;44959;-69
2021/12/25 07:05:51;;;;;;;7.47;5.40;;;16.20;65.80;;;;;;5061026;28;43996;-69
2021/12/25 07:08:48;;;;;;;7.20;5.57;;;16.20;65.90;;;;;;5062287;28;44099;-69
2021/12/25 07:11:37;;;;;;;8.60;5.90;;;16.20;65.90;;;;;;5066304;28;44698;-69
2021/12/25 07:14:26;;;;;;;7.23;5.30;;;16.20;66.00;;;;;;5066132;28;45833;-69
2021/12/25 07:17:21;;;;;;;7.70;5.47;;;16.20;66.10;;;;;;5066275;28;43849;-70
2021/12/25 07:19:56;;;;;;;9.93;5.80;;;16.10;66.10;;;;;;5066518;28;43958;-70
2021/12/25 07:22:42;;;;;;;9.63;5.83;;;16.20;66.20;;;;;;5065383;28;44396;-69
2021/12/25 07:25:42;;;;;;;5.97;5.27;;;16.30;65.90;;;;;;5054333;28;43870;-69
2021/12/25 07:28:10;;;;;;;6.27;5.07;;;16.50;65.30;;;;;;5067531;28;44025;-70
2021/12/25 07:30:38;;;;;;;7.33;5.07;;;16.60;64.80;;;;;;5067795;28;43994;-68
2021/12/25 07:33:07;;;;;;;8.13;5.20;;;16.70;64.60;;;;;;5065839;28;45776;-69
2021/12/25 07:35:36;;;;;;;6.33;4.73;;;16.60;64.50;;;;;;5067173;28;43966;-69
2021/12/25 07:38:03;;;;;;;8.07;4.87;;;16.60;64.60;;;;;;5067266;28;43997;-69
2021/12/25 07:40:31;;;;;;;9.47;5.10;;;16.50;64.70;;;;;;5067587;28;43512;-69
2021/12/25 07:42:59;;;;;;;5.97;5.07;;;16.40;65.00;;;;;;5067010;28;44001;-69
2021/12/25 07:45:50;;;;;;;6.87;5.17;;;16.40;65.20;;;;;;5059038;28;44077;-70
2021/12/25 07:48:21;;;;;;;6.17;5.33;;;16.30;65.40;;;;;;5067404;28;43835;-69
2021/12/25 07:50:54;;;;;;;6.90;5.00;;;16.30;65.60;;;;;;5062432;28;43882;-70
2021/12/25 07:53:22;;;;;;;7.73;5.17;;;16.20;65.70;;;;;;5067007;28;45100;-69
2021/12/25 07:55:50;;;;;;;5.87;4.97;;;16.20;65.80;;;;;;5066997;28;44027;-70
2021/12/25 07:58:18;;;;;;;4.97;4.20;;;16.20;65.90;;;;;;5066684;28;43811;-69
2021/12/25 08:00:46;;;;;;;6.83;4.83;;;16.20;66.20;;;;;;5066910;28;43565;-70
2021/12/25 08:03:15;;;;;;;5.63;4.73;;;16.20;66.20;;;;;;5066435;28;43946;-70
2021/12/25 08:05:45;;;;;;;6.03;4.60;;;16.30;65.90;;;;;;5066438;28;43840;-69
2021/12/25 08:08:13;;;;;;;5.03;4.47;;;16.40;65.50;;;;;;5066608;28;44023;-70
2021/12/25 08:10:42;;;;;;;5.00;4.50;;;16.40;66.00;;;;;;5066787;28;43868;-69
2021/12/25 08:13:10;;;;;;;5.73;4.70;;;16.40;65.20;;;;;;5066160;28;43917;-69
2021/12/25 08:15:38;;;;;;;6.07;4.10;;;16.40;65.40;;;;;;5066341;28;43574;-69
2021/12/25 08:18:06;;;;;;;4.83;3.80;;;16.30;65.40;;;;;;5066503;28;43763;-69
2021/12/25 08:20:54;;;;;;;6.00;4.50;;;16.30;65.70;;;;;;5064442;28;43455;-69
2021/12/25 08:23:40;;;;;;;4.30;3.87;;;16.20;65.70;;;;;;5063321;28;44005;-69
2021/12/25 08:26:26;;;;;;;4.60;4.07;;;16.20;65.90;;;;;;5059606;28;43493;-69
2021/12/25 08:28:54;;;;;;;4.93;4.40;;;16.20;66.00;;;;;;5066378;28;43966;-69
2021/12/25 08:31:41;;;;;;;6.30;4.63;;;16.20;66.20;;;;;;5063903;28;43869;-70
2021/12/25 08:34:09;;;;;;;4.97;4.40;;;16.10;66.10;;;;;;5066100;28;44170;-68
2021/12/25 08:37:08;;;;;;;4.93;4.10;;;16.10;66.10;;;;;;5060313;28;43897;-69
2021/12/25 08:39:36;;;;;;;5.07;4.33;;;16.10;66.10;;;;;;5064725;28;43967;-69
2021/12/25 08:42:05;;;;;;;5.17;4.30;;;16.10;66.20;;;;;;5066598;28;44225;-69
2021/12/25 08:44:37;;;;;;;4.60;4.20;;;16.10;66.30;;;;;;5065927;28;44002;-69
2021/12/25 08:47:06;;;;;;;5.00;4.10;;;16.30;66.20;;;;;;5066099;28;44159;-68
2021/12/25 08:49:34;;;;;;;4.03;3.73;;;16.40;65.60;;;;;;5066015;28;43813;-69
2021/12/25 08:52:06;;;;;;;4.73;3.87;;;16.60;65.10;;;;;;5066419;28;44241;-69
2021/12/25 08:54:35;;;;;;;3.77;3.50;;;16.70;64.70;;;;;;5064578;28;44345;-68
2021/12/25 08:57:03;;;;;;;3.97;3.67;;;16.70;64.60;;;;;;5064445;28;44027;-70
2021/12/25 08:59:33;;;;;;;4.50;4.10;;;16.70;64.50;;;;;;5065863;28;43943;-69
2021/12/25 09:02:03;;;;;;;4.70;3.87;;;16.60;64.70;;;;;;5066090;28;43996;-69
2021/12/25 09:04:31;;;;;;;3.63;3.40;;;16.50;64.90;;;;;;5065695;28;43681;-69
2021/12/25 09:07:00;;;;;;;3.83;3.47;;;16.50;65.10;;;;;;5065628;28;44010;-69
2021/12/25 09:09:27;;;;;;;3.90;3.60;;;16.40;65.30;;;;;;5065842;28;43385;-69
2021/12/25 09:11:57;;;;;;;4.00;3.80;;;16.30;65.40;;;;;;5066175;28;44183;-69
2021/12/25 09:14:25;;;;;;;3.73;3.43;;;16.30;65.60;;;;;;5064037;28;46331;-69
2021/12/25 09:16:53;;;;;;;4.53;4.10;;;16.30;65.80;;;;;;5065774;28;43966;-69
2021/12/25 09:19:21;;;;;;;4.17;3.77;;;16.30;65.90;;;;;;5066013;28;43378;-69
2021/12/25 09:21:49;;;;;;;3.80;3.50;;;16.20;65.90;;;;;;5065632;28;43518;-69
2021/12/25 09:24:17;;;;;;;4.23;3.80;;;16.20;66.20;;;;;;5065353;28;43819;-69
2021/12/25 09:26:45;;;;;;;3.80;3.50;;;16.30;66.10;;;;;;5065385;28;43939;-69
2021/12/25 09:29:14;;;;;;;4.27;3.87;;;16.40;65.60;;;;;;5065614;28;43963;-69
2021/12/25 09:31:42;;;;;;;3.90;3.60;;;16.50;65.40;;;;;;5064742;28;44048;-69
2021/12/25 09:34:10;;;;;;;3.40;3.10;;;16.40;65.20;;;;;;5065255;28;44024;-69
2021/12/25 09:36:38;;;;;;;3.53;3.33;;;16.40;65.30;;;;;;5065317;28;43920;-69
2021/12/25 09:39:06;;;;;;;3.70;3.40;;;16.40;65.50;;;;;;5065263;28;44054;-68
2021/12/25 09:41:34;;;;;;;3.70;3.40;;;16.30;65.60;;;;;;5065788;28;43968;-69
2021/12/25 09:44:02;;;;;;;3.70;3.40;;;16.30;65.80;;;;;;5063776;28;46265;-69
2021/12/25 09:46:31;;;;;;;3.70;3.40;;;16.20;65.80;;;;;;5066015;28;43935;-69
2021/12/25 09:49:01;;;;;;;3.97;3.60;;;16.20;66.00;;;;;;5068724;28;43470;-69
2021/12/25 09:51:29;;;;;;;4.00;3.70;;;16.20;66.10;;;;;;5069142;28;44270;-69
2021/12/25 09:53:57;;;;;;;4.00;3.67;;;16.20;66.20;;;;;;5068463;28;44026;-69
2021/12/25 09:56:25;;;;;;;3.47;3.17;;;16.20;66.20;;;;;;5068549;28;43994;-69
2021/12/25 09:58:53;;;;;;;3.60;3.40;;;16.10;66.90;;;;;;5068878;28;44030;-69
2021/12/25 10:01:47;;;;;;;4.10;3.80;;;16.10;66.20;;;;;;5068914;28;44013;-69
2021/12/25 10:04:31;;;;;;;4.07;3.70;;;16.10;66.40;;;;;;5053713;28;43954;-70
2021/12/25 10:06:59;;;;;;;3.30;3.10;;;16.20;66.30;;;;;;5068800;28;44009;-69
2021/12/25 10:09:27;;;;;;;3.23;3.03;;;16.40;66.00;;;;;;5068316;28;43999;-69
2021/12/25 10:11:58;;;;;;;3.30;3.10;;;16.50;65.40;;;;;;5068801;28;43415;-69
2021/12/25 10:14:26;;;;;;;3.50;3.30;;;16.70;64.90;;;;;;5068367;28;45140;-69
2021/12/25 10:16:55;;;;;;;5.23;3.70;;;16.80;64.70;;;;;;5068472;28;43994;-69
2021/12/25 10:19:26;;;;;;;3.73;3.43;;;16.80;64.60;;;;;;5068277;28;43979;-69
2021/12/25 10:22:05;;;;;;;3.30;3.10;;;16.70;64.60;;;;;;5068615;28;43440;-69
2021/12/25 10:24:41;;;;;;;3.33;3.07;;;16.60;64.80;;;;;;5062038;28;43942;-70
2021/12/25 10:27:10;;;;;;;3.80;3.50;;;16.50;65.00;;;;;;5068256;28;43949;-69
2021/12/25 10:29:38;;;;;;;3.60;3.30;;;16.50;65.30;;;;;;5068157;28;43406;-70
2021/12/25 10:32:18;;;;;;;3.20;3.00;;;16.40;65.40;;;;;;5068653;28;44273;-69
2021/12/25 10:34:46;;;;;;;3.30;3.10;;;16.30;65.60;;;;;;5068219;28;43606;-69
2021/12/25 10:37:16;;;;;;;3.80;3.50;;;16.30;65.80;;;;;;5066471;28;44905;-69
2021/12/25 10:39:44;;;;;;;3.63;3.33;;;16.30;65.90;;;;;;5067883;28;43951;-69
2021/12/25 10:42:16;;;;;;;3.50;3.27;;;16.30;66.00;;;;;;5068327;28;43501;-69
2021/12/25 10:44:45;;;;;;;3.03;2.83;;;16.20;66.80;;;;;;5066501;28;46153;-69
2021/12/25 10:47:15;;;;;;;3.03;2.90;;;16.30;66.30;;;;;;5067666;28;44014;-70
2021/12/25 10:49:45;;;;;;;3.43;3.23;;;16.30;66.70;;;;;;5067889;28;43943;-69
2021/12/25 10:52:16;;;;;;;3.17;2.97;;;16.50;65.60;;;;;;5068260;28;43994;-69
2021/12/25 10:54:50;;;;;;;3.17;2.97;;;16.50;65.30;;;;;;5068100;28;45011;-69
2021/12/25 10:57:35;;;;;;;2.83;2.73;;;16.50;65.30;;;;;;5066046;28;46146;-69
2021/12/25 11:00:07;;;;;;;3.70;3.43;;;16.40;65.40;;;;;;5066144;28;44070;-70
2021/12/25 11:02:38;;;;;;;3.63;3.33;;;16.40;65.60;;;;;;5068253;28;43454;-69
2021/12/25 11:05:26;;;;;;;3.20;3.10;;;16.30;65.80;;;;;;5067777;28;45055;-69
2021/12/25 11:08:03;;;;;;;3.43;3.23;;;16.30;66.00;;;;;;5067864;28;43940;-69
2021/12/25 11:10:31;;;;;;;3.27;3.07;;;16.30;66.10;;;;;;5059423;28;43886;-69
2021/12/25 11:12:59;;;;;;;3.30;3.10;;;16.20;66.10;;;;;;5061266;28;44222;-69
2021/12/25 11:15:29;;;;;;;3.20;3.00;;;16.20;66.20;;;;;;5060647;28;44267;-69
2021/12/25 11:18:06;;;;;;;3.03;2.83;;;16.20;66.30;;;;;;5061231;28;44047;-69
2021/12/25 11:20:36;;;;;;;3.23;3.03;;;16.20;66.40;;;;;;5067340;28;44042;-69
2021/12/25 11:23:04;;;;;;;3.10;3.00;;;16.10;66.30;;;;;;5065708;28;44010;-69
2021/12/25 11:25:33;;;;;;;3.30;3.10;;;16.10;66.40;;;;;;5067140;28;43889;-69
2021/12/25 11:28:02;;;;;;;3.10;2.90;;;16.10;66.50;;;;;;5067094;28;43432;-70
2021/12/25 11:30:32;;;;;;;3.00;2.90;;;16.20;66.40;;;;;;5067059;28;43955;-69
2021/12/25 11:33:01;;;;;;;3.40;3.10;;;16.40;66.00;;;;;;5066138;28;43845;-69
2021/12/25 11:35:31;;;;;;;3.40;3.13;;;16.60;65.50;;;;;;5065481;28;45795;-70
2021/12/25 11:38:00;;;;;;;2.87;2.77;;;16.70;65.00;;;;;;5066941;28;43951;-69
2021/12/25 11:40:29;;;;;;;3.10;2.90;;;16.70;64.80;;;;;;5066771;28;43949;-68
2021/12/25 11:42:59;;;;;;;4.13;2.93;;;16.70;64.80;;;;;;5067212;28;43500;-69
2021/12/25 11:45:30;;;;;;;3.67;2.83;;;16.60;64.80;;;;;;5066944;28;43960;-69
2021/12/25 11:48:01;;;;;;;3.47;3.17;;;16.60;65.20;;;;;;5067041;28;43908;-70
2021/12/25 11:50:40;;;;;;;3.37;3.07;;;16.50;65.30;;;;;;5066936;28;44031;-70
2021/12/25 11:53:15;;;;;;;3.30;3.10;;;16.40;65.50;;;;;;5067429;28;43343;-70
2021/12/25 11:56:17;;;;;;;2.80;2.70;;;16.40;65.80;;;;;;5060077;28;43942;-69
2021/12/25 11:58:49;;;;;;;3.13;2.93;;;16.30;65.80;;;;;;5066790;28;44102;-69
2021/12/25 12:01:23;;;;;;;4.13;3.00;;;16.30;66.10;;;;;;5066578;28;44256;-69
2021/12/25 12:03:54;;;;;;;2.77;2.60;;;16.20;66.10;;;;;;5065869;28;44015;-69
2021/12/25 12:07:01;;;;;;;3.00;2.67;;;16.20;66.20;;;;;;5065286;28;45642;-68
2021/12/25 12:09:56;;;;;;;3.07;2.83;;;16.20;66.50;;;;;;5045319;28;44178;-69
2021/12/25 12:12:25;;;;;;;3.07;2.77;;;16.30;66.20;;;;;;5063586;28;43958;-69
2021/12/25 12:15:23;;;;;;;5.70;3.03;;;16.40;65.80;;;;;;5061051;28;44050;-69
2021/12/25 12:18:33;;;;;;;4.07;2.90;;;16.50;65.60;;;;;;5063727;28;43999;-69
2021/12/25 12:21:07;;;;;;;2.83;2.73;;;16.40;65.50;;;;;;5066030;28;43817;-68
2021/12/25 12:23:45;;;;;;;3.53;3.23;;;16.40;66.50;;;;;;5066405;28;43850;-69
2021/12/25 12:26:13;;;;;;;5.37;3.17;;;16.30;65.90;;;;;;5066767;28;43422;-69
2021/12/25 12:28:50;;;;;;;3.40;3.20;;;16.30;66.10;;;;;;5064761;28;45710;-69
2021/12/25 12:31:37;;;;;;;2.90;2.70;;;16.20;66.20;;;;;;5064671;28;45350;-71
2021/12/25 12:34:33;;;;;;;3.37;3.17;;;16.20;66.40;;;;;;5066445;28;44000;-69
2021/12/25 12:37:26;;;;;;;2.80;2.70;;;16.20;66.50;;;;;;5066821;28;44015;-70
2021/12/25 12:40:23;;;;;;;3.70;3.40;;;16.10;66.50;;;;;;5065975;28;43994;-69
2021/12/25 12:42:58;;;;;;;3.23;2.87;;;16.10;66.60;;;;;;5064811;28;43948;-69
2021/12/25 12:45:27;;;;;;;5.10;3.00;;;16.10;66.60;;;;;;5066334;28;43978;-69
2021/12/25 12:48:18;;;;;;;3.43;3.20;;;16.10;66.70;;;;;;5065006;28;44240;-69
2021/12/25 12:50:48;;;;;;;3.20;3.00;;;16.10;66.90;;;;;;5066204;28;43949;-69
2021/12/25 12:53:16;;;;;;;3.10;2.90;;;16.30;66.70;;;;;;5059229;28;43949;-69
2021/12/25 12:55:46;;;;;;;3.10;2.90;;;16.40;66.20;;;;;;5058170;28;43453;-69
2021/12/25 12:58:16;;;;;;;3.20;3.03;;;16.60;65.70;;;;;;5066451;28;43997;-69
2021/12/25 13:00:45;;;;;;;3.50;3.30;;;16.60;65.20;;;;;;5064078;28;45841;-69
2021/12/25 13:03:13;;;;;;;3.43;3.13;;;16.70;65.10;;;;;;5065456;28;44078;-69
2021/12/25 13:05:42;;;;;;;3.30;3.07;;;16.60;65.00;;;;;;5065932;28;43988;-69
2021/12/25 13:08:12;;;;;;;3.40;3.10;;;16.60;65.30;;;;;;5066011;28;43971;-70
2021/12/25 13:10:49;;;;;;;2.73;2.63;;;16.50;65.50;;;;;;5065515;28;43897;-69
2021/12/25 13:13:20;;;;;;;3.60;3.33;;;16.40;65.70;;;;;;5064160;28;44993;-70
2021/12/25 13:15:49;;;;;;;3.60;3.40;;;16.40;65.90;;;;;;5064509;28;44003;-69
2021/12/25 13:18:18;;;;;;;3.30;3.20;;;16.30;65.80;;;;;;5065958;28;44014;-70
2021/12/25 13:20:48;;;;;;;3.90;3.63;;;16.30;65.80;;;;;;5065372;28;43879;-68
2021/12/25 13:23:18;;;;;;;3.63;3.50;;;16.20;65.60;;;;;;5067019;28;44882;-69
2021/12/25 13:25:48;;;;;;;3.80;3.60;;;16.20;65.70;;;;;;5068998;28;43984;-70
2021/12/25 13:28:18;;;;;;;4.50;3.80;;;16.20;65.90;;;;;;5069533;28;43460;-69
2021/12/25 13:30:49;;;;;;;5.43;3.70;;;16.20;66.20;;;;;;5068771;28;44738;-68
2021/12/25 13:33:19;;;;;;;7.33;3.93;;;16.30;66.10;;;;;;5068970;28;44190;-68
2021/12/25 13:35:47;;;;;;;3.50;3.30;;;16.40;65.80;;;;;;5069297;28;43349;-70
2021/12/25 13:38:15;;;;;;;3.90;3.30;;;16.40;65.50;;;;;;5069372;28;43534;-68
2021/12/25 13:40:47;;;;;;;3.47;3.17;;;16.40;65.40;;;;;;5068747;28;45013;-69
2021/12/25 13:43:15;;;;;;;3.80;3.60;;;16.40;65.50;;;;;;5068294;28;43950;-69
2021/12/25 13:45:44;;;;;;;4.03;3.80;;;16.30;65.60;;;;;;5068931;28;43987;-68
2021/12/25 13:48:13;;;;;;;3.67;3.37;;;16.30;65.80;;;;;;5069011;28;43506;-69
2021/12/25 13:50:41;;;;;;;3.60;3.30;;;16.30;65.90;;;;;;5068595;28;43629;-68
2021/12/25 13:53:19;;;;;;;3.27;3.07;;;16.20;66.00;;;;;;5068624;28;43967;-69
2021/12/25 13:55:49;;;;;;;3.97;3.60;;;16.20;66.10;;;;;;5068946;28;43824;-68
2021/12/25 13:58:18;;;;;;;3.30;3.20;;;16.20;66.20;;;;;;5068967;28;43936;-68
2021/12/25 14:00:48;;;;;;;3.47;3.33;;;16.20;66.30;;;;;;5068286;28;43983;-68
2021/12/25 14:03:19;;;;;;;3.43;3.13;;;16.10;66.30;;;;;;5068396;28;43983;-68
2021/12/25 14:05:49;;;;;;;3.30;3.10;;;16.10;66.40;;;;;;5068744;28;43424;-69
2021/12/25 14:08:19;;;;;;;3.47;3.30;;;16.10;66.40;;;;;;5068790;28;43709;-68
2021/12/25 14:10:47;;;;;;;3.43;3.33;;;16.10;66.60;;;;;;5068405;28;44074;-69
2021/12/25 14:13:17;;;;;;;3.63;3.43;;;16.20;66.50;;;;;;5066689;28;45131;-68